WZZ1229 LOWW-LDZA
Flight info
| Callsign | WZZ1229 |
|---|---|
| Flight time | 0h 40m |
| Altitude | 23000 |
| Route | STEIN3C/29 STEIN DCT NOHAT DCT NEKIN |
| Aircraft | A321/M-SDE3FGHIRWY/LB1 |
Departure
| Time | 2026-04-26 18:40 |
|---|---|
| Airport | Vienna International Airport (LOWW) |
Arrival
| Time | 2026-04-26 19:20 |
|---|---|
| Airport | Zagreb Franjo Tuđman International Airport (LDZA) |
| Time | Latitude | Longitude | Altitude | Speed | Heading |
|---|---|---|---|---|---|
| 2026-04-26 18:14 | 48.11985 | 16.55588 | 616 ft | 0 kts | 100° |
| 2026-04-26 18:27 | 48.11985 | 16.55587 | 610 ft | 1 kts | 100° |
| 2026-04-26 18:27 | 48.11988 | 16.55567 | 623 ft | 3 kts | 106° |
| 2026-04-26 18:27 | 48.11994 | 16.55540 | 620 ft | 3 kts | 122° |
| 2026-04-26 18:28 | 48.12006 | 16.55519 | 623 ft | 3 kts | 155° |
| 2026-04-26 18:28 | 48.12020 | 16.55514 | 621 ft | 2 kts | 202° |
| 2026-04-26 18:28 | 48.12023 | 16.55515 | 621 ft | 0 kts | 206° |
| 2026-04-26 18:31 | 48.12014 | 16.55509 | 623 ft | 5 kts | 206° |
| 2026-04-26 18:31 | 48.11948 | 16.55461 | 619 ft | 12 kts | 206° |
| 2026-04-26 18:31 | 48.11870 | 16.55431 | 610 ft | 12 kts | 192° |
| 2026-04-26 18:31 | 48.11799 | 16.55471 | 616 ft | 12 kts | 123° |
| 2026-04-26 18:32 | 48.11759 | 16.55590 | 618 ft | 14 kts | 116° |
| 2026-04-26 18:32 | 48.11715 | 16.55723 | 623 ft | 15 kts | 116° |
| 2026-04-26 18:32 | 48.11668 | 16.55868 | 623 ft | 16 kts | 116° |
| 2026-04-26 18:32 | 48.11617 | 16.56024 | 614 ft | 17 kts | 116° |
| 2026-04-26 18:33 | 48.11562 | 16.56190 | 612 ft | 18 kts | 116° |
| 2026-04-26 18:33 | 48.11506 | 16.56364 | 617 ft | 19 kts | 115° |
| 2026-04-26 18:33 | 48.11447 | 16.56550 | 617 ft | 20 kts | 116° |
| 2026-04-26 18:33 | 48.11383 | 16.56745 | 621 ft | 21 kts | 116° |
| 2026-04-26 18:34 | 48.11316 | 16.56947 | 612 ft | 22 kts | 116° |
| 2026-04-26 18:34 | 48.11248 | 16.57159 | 619 ft | 23 kts | 115° |
| 2026-04-26 18:34 | 48.11177 | 16.57376 | 618 ft | 22 kts | 116° |
| 2026-04-26 18:34 | 48.11137 | 16.57497 | 616 ft | 4 kts | 117° |
| 2026-04-26 18:35 | 48.11112 | 16.57527 | 616 ft | 5 kts | 156° |
| 2026-04-26 18:35 | 48.11073 | 16.57521 | 610 ft | 6 kts | 202° |
| 2026-04-26 18:35 | 48.11067 | 16.57517 | 617 ft | 0 kts | 204° |
| 2026-04-26 18:37 | 48.11058 | 16.57512 | 613 ft | 6 kts | 204° |
| 2026-04-26 18:37 | 48.10986 | 16.57461 | 612 ft | 16 kts | 211° |
| 2026-04-26 18:37 | 48.10981 | 16.57332 | 621 ft | 0 kts | 295° |
| 2026-04-26 18:39 | 48.11069 | 16.57058 | 616 ft | 68 kts | 296° |
| 2026-04-26 18:40 | 48.11384 | 16.56102 | 619 ft | 134 kts | 296° |
| 2026-04-26 18:40 | 48.11863 | 16.54653 | 737 ft | 172 kts | 299° |
| 2026-04-26 18:40 | 48.12172 | 16.52901 | 1353 ft | 182 kts | 265° |
| 2026-04-26 18:40 | 48.11533 | 16.51234 | 1973 ft | 195 kts | 222° |
| 2026-04-26 18:41 | 48.10434 | 16.49958 | 2496 ft | 207 kts | 218° |
| 2026-04-26 18:41 | 48.09190 | 16.48611 | 2636 ft | 236 kts | 216° |
| 2026-04-26 18:41 | 48.08239 | 16.47679 | 2762 ft | 257 kts | 206° |
| 2026-04-26 18:41 | 48.05809 | 16.47227 | 3498 ft | 273 kts | 174° |
| 2026-04-26 18:42 | 48.04554 | 16.47436 | 4007 ft | 276 kts | 172° |
| 2026-04-26 18:42 | 48.02013 | 16.48007 | 5069 ft | 282 kts | 171° |
| 2026-04-26 18:42 | 48.00059 | 16.48470 | 5834 ft | 287 kts | 173° |
| 2026-04-26 18:42 | 47.98076 | 16.48865 | 6625 ft | 288 kts | 183° |
| 2026-04-26 18:43 | 47.96125 | 16.48453 | 7326 ft | 282 kts | 205° |
| 2026-04-26 18:43 | 47.94369 | 16.47198 | 8075 ft | 280 kts | 213° |
| 2026-04-26 18:43 | 47.92633 | 16.45838 | 8830 ft | 284 kts | 213° |
| 2026-04-26 18:43 | 47.90873 | 16.44457 | 9573 ft | 288 kts | 213° |
| 2026-04-26 18:44 | 47.89665 | 16.43602 | 10064 ft | 294 kts | 205° |
| 2026-04-26 18:44 | 47.87638 | 16.42922 | 10705 ft | 306 kts | 188° |
| 2026-04-26 18:44 | 47.84691 | 16.43410 | 11015 ft | 342 kts | 167° |
| 2026-04-26 18:44 | 47.82318 | 16.44371 | 11147 ft | 365 kts | 167° |
| 2026-04-26 18:45 | 47.79822 | 16.45384 | 11538 ft | 376 kts | 167° |
| 2026-04-26 18:45 | 47.78140 | 16.46063 | 11934 ft | 380 kts | 167° |
| 2026-04-26 18:45 | 47.75574 | 16.47092 | 12567 ft | 384 kts | 167° |
| 2026-04-26 18:45 | 47.72096 | 16.48475 | 13445 ft | 389 kts | 167° |
| 2026-04-26 18:46 | 47.70359 | 16.49162 | 13881 ft | 392 kts | 167° |
| 2026-04-26 18:46 | 47.67713 | 16.50207 | 14482 ft | 395 kts | 167° |
| 2026-04-26 18:46 | 47.65042 | 16.51259 | 15084 ft | 399 kts | 167° |
| 2026-04-26 18:46 | 47.62352 | 16.52317 | 15694 ft | 401 kts | 167° |
| 2026-04-26 18:47 | 47.59642 | 16.53379 | 16309 ft | 404 kts | 167° |
| 2026-04-26 18:47 | 47.56915 | 16.54442 | 16936 ft | 407 kts | 167° |
| 2026-04-26 18:47 | 47.54123 | 16.55112 | 17523 ft | 407 kts | 176° |
| 2026-04-26 18:47 | 47.51331 | 16.55504 | 18131 ft | 410 kts | 177° |
| 2026-04-26 18:48 | 47.48478 | 16.55892 | 18703 ft | 413 kts | 177° |
| 2026-04-26 18:48 | 47.45606 | 16.56279 | 19224 ft | 416 kts | 177° |
| 2026-04-26 18:48 | 47.42721 | 16.56673 | 19787 ft | 417 kts | 176° |
| 2026-04-26 18:48 | 47.39830 | 16.57073 | 20396 ft | 418 kts | 177° |
| 2026-04-26 18:49 | 47.36933 | 16.57470 | 20956 ft | 419 kts | 177° |
| 2026-04-26 18:49 | 47.34020 | 16.57866 | 21498 ft | 421 kts | 177° |
| 2026-04-26 18:49 | 47.31092 | 16.58260 | 22004 ft | 423 kts | 177° |
| 2026-04-26 18:49 | 47.28151 | 16.58655 | 22505 ft | 426 kts | 177° |
| 2026-04-26 18:50 | 47.25193 | 16.59053 | 22988 ft | 428 kts | 177° |
| 2026-04-26 18:50 | 47.22221 | 16.59454 | 23193 ft | 429 kts | 177° |
| 2026-04-26 18:50 | 47.19276 | 16.59856 | 23243 ft | 433 kts | 177° |
| 2026-04-26 18:50 | 47.16276 | 16.60266 | 23238 ft | 433 kts | 177° |
| 2026-04-26 18:51 | 47.13276 | 16.60674 | 23241 ft | 433 kts | 178° |
| 2026-04-26 18:51 | 47.10278 | 16.61080 | 23243 ft | 433 kts | 178° |
| 2026-04-26 18:51 | 47.07280 | 16.61485 | 23244 ft | 433 kts | 178° |
| 2026-04-26 18:51 | 47.04318 | 16.61887 | 22984 ft | 422 kts | 178° |
| 2026-04-26 18:52 | 47.01416 | 16.62281 | 22722 ft | 417 kts | 178° |
| 2026-04-26 18:52 | 46.98529 | 16.62665 | 22441 ft | 416 kts | 178° |
| 2026-04-26 18:52 | 46.95646 | 16.63043 | 22176 ft | 415 kts | 178° |
| 2026-04-26 18:52 | 46.92774 | 16.63421 | 21915 ft | 414 kts | 177° |
| 2026-04-26 18:53 | 46.89949 | 16.63803 | 21656 ft | 413 kts | 177° |
| 2026-04-26 18:53 | 46.87096 | 16.64192 | 21404 ft | 411 kts | 177° |
| 2026-04-26 18:53 | 46.84250 | 16.64578 | 21145 ft | 410 kts | 177° |
| 2026-04-26 18:53 | 46.81411 | 16.64958 | 20893 ft | 409 kts | 177° |
| 2026-04-26 18:54 | 46.78616 | 16.65329 | 20637 ft | 408 kts | 177° |
| 2026-04-26 18:54 | 46.75795 | 16.65702 | 20393 ft | 406 kts | 177° |
| 2026-04-26 18:54 | 46.72989 | 16.66070 | 20140 ft | 404 kts | 177° |
| 2026-04-26 18:54 | 46.70196 | 16.66437 | 19896 ft | 403 kts | 177° |
| 2026-04-26 18:55 | 46.67405 | 16.66807 | 19650 ft | 402 kts | 177° |
| 2026-04-26 18:55 | 46.64624 | 16.67175 | 19248 ft | 401 kts | 176° |
| 2026-04-26 18:55 | 46.61852 | 16.67544 | 18700 ft | 400 kts | 176° |
| 2026-04-26 18:55 | 46.59079 | 16.67914 | 18115 ft | 399 kts | 176° |
| 2026-04-26 18:56 | 46.56355 | 16.68278 | 17507 ft | 398 kts | 176° |
| 2026-04-26 18:56 | 46.53603 | 16.68645 | 16908 ft | 396 kts | 176° |
| 2026-04-26 18:56 | 46.50862 | 16.68998 | 16322 ft | 395 kts | 176° |
| 2026-04-26 18:56 | 46.48131 | 16.69353 | 15747 ft | 393 kts | 176° |
| 2026-04-26 18:57 | 46.45422 | 16.69708 | 15333 ft | 386 kts | 176° |
| 2026-04-26 18:57 | 46.43661 | 16.69783 | 15226 ft | 381 kts | 183° |
| 2026-04-26 18:57 | 46.40233 | 16.68762 | 15238 ft | 376 kts | 205° |
| 2026-04-26 18:57 | 46.38020 | 16.66830 | 15232 ft | 370 kts | 223° |
| 2026-04-26 18:58 | 46.36150 | 16.64276 | 15229 ft | 370 kts | 226° |
| 2026-04-26 18:58 | 46.34305 | 16.61673 | 15236 ft | 371 kts | 226° |
| 2026-04-26 18:58 | 46.32462 | 16.59063 | 15234 ft | 371 kts | 226° |
| 2026-04-26 18:58 | 46.30964 | 16.56944 | 15234 ft | 371 kts | 226° |
| 2026-04-26 18:59 | 46.29167 | 16.54410 | 15234 ft | 371 kts | 226° |
| 2026-04-26 18:59 | 46.27318 | 16.51812 | 15231 ft | 371 kts | 226° |
| 2026-04-26 18:59 | 46.25466 | 16.49219 | 15225 ft | 371 kts | 226° |
| 2026-04-26 18:59 | 46.23611 | 16.46628 | 15226 ft | 371 kts | 226° |
| 2026-04-26 19:00 | 46.21758 | 16.44042 | 15228 ft | 371 kts | 226° |
| 2026-04-26 19:00 | 46.19906 | 16.41454 | 15231 ft | 371 kts | 226° |
| 2026-04-26 19:00 | 46.18055 | 16.38866 | 15229 ft | 370 kts | 226° |
| 2026-04-26 19:00 | 46.16206 | 16.36282 | 15211 ft | 371 kts | 226° |
| 2026-04-26 19:01 | 46.14379 | 16.33734 | 14964 ft | 369 kts | 226° |
| 2026-04-26 19:01 | 46.12538 | 16.31170 | 14723 ft | 368 kts | 226° |
| 2026-04-26 19:01 | 46.10703 | 16.28612 | 14477 ft | 367 kts | 226° |
| 2026-04-26 19:01 | 46.08869 | 16.26059 | 14236 ft | 366 kts | 226° |
| 2026-04-26 19:02 | 46.07039 | 16.23519 | 13983 ft | 365 kts | 226° |
| 2026-04-26 19:02 | 46.05217 | 16.20993 | 13602 ft | 362 kts | 226° |
| 2026-04-26 19:02 | 46.03412 | 16.18490 | 13232 ft | 359 kts | 226° |
| 2026-04-26 19:02 | 46.02223 | 16.16842 | 12991 ft | 357 kts | 226° |
| 2026-04-26 19:03 | 45.99838 | 16.13536 | 12372 ft | 354 kts | 226° |
| 2026-04-26 19:03 | 45.98071 | 16.11087 | 11838 ft | 351 kts | 226° |
| 2026-04-26 19:03 | 45.96342 | 16.08695 | 11324 ft | 349 kts | 226° |
| 2026-04-26 19:03 | 45.94599 | 16.06289 | 10813 ft | 346 kts | 226° |
| 2026-04-26 19:04 | 45.92877 | 16.03917 | 10403 ft | 340 kts | 226° |
| 2026-04-26 19:04 | 45.91209 | 16.01628 | 10366 ft | 323 kts | 226° |
| 2026-04-26 19:04 | 45.89627 | 15.99457 | 10361 ft | 306 kts | 226° |
| 2026-04-26 19:04 | 45.88130 | 15.97401 | 10345 ft | 291 kts | 226° |
| 2026-04-26 19:05 | 45.85104 | 15.93224 | 9995 ft | 309 kts | 226° |
| 2026-04-26 19:05 | 45.83594 | 15.91151 | 9816 ft | 294 kts | 226° |
| 2026-04-26 19:05 | 45.82160 | 15.89190 | 9685 ft | 284 kts | 226° |
| 2026-04-26 19:06 | 45.80736 | 15.87247 | 9558 ft | 285 kts | 226° |
| 2026-04-26 19:06 | 45.79291 | 15.85269 | 9451 ft | 288 kts | 227° |
| 2026-04-26 19:06 | 45.77835 | 15.83273 | 9102 ft | 291 kts | 226° |
| 2026-04-26 19:06 | 45.76371 | 15.81269 | 8675 ft | 291 kts | 226° |
| 2026-04-26 19:07 | 45.74910 | 15.79269 | 8245 ft | 288 kts | 225° |
| 2026-04-26 19:07 | 45.73477 | 15.77313 | 7844 ft | 281 kts | 224° |
| 2026-04-26 19:07 | 45.72078 | 15.75406 | 7460 ft | 275 kts | 225° |
| 2026-04-26 19:07 | 45.70706 | 15.73534 | 7082 ft | 271 kts | 224° |
| 2026-04-26 19:08 | 45.69357 | 15.71693 | 6711 ft | 265 kts | 225° |
| 2026-04-26 19:08 | 45.68075 | 15.69847 | 6344 ft | 265 kts | 226° |
| 2026-04-26 19:08 | 45.66649 | 15.68206 | 5953 ft | 263 kts | 208° |
| 2026-04-26 19:08 | 45.65008 | 15.67053 | 5585 ft | 263 kts | 204° |
| 2026-04-26 19:09 | 45.63385 | 15.65972 | 5494 ft | 250 kts | 204° |
| 2026-04-26 19:09 | 45.61859 | 15.64945 | 5496 ft | 235 kts | 204° |
| 2026-04-26 19:09 | 45.60403 | 15.63960 | 5502 ft | 230 kts | 204° |
| 2026-04-26 19:09 | 45.58967 | 15.62980 | 5502 ft | 228 kts | 204° |
| 2026-04-26 19:10 | 45.57534 | 15.62002 | 5500 ft | 227 kts | 204° |
| 2026-04-26 19:10 | 45.56112 | 15.61026 | 5498 ft | 228 kts | 204° |
| 2026-04-26 19:10 | 45.54671 | 15.60051 | 5500 ft | 229 kts | 204° |
| 2026-04-26 19:10 | 45.53237 | 15.59076 | 5499 ft | 228 kts | 202° |
| 2026-04-26 19:11 | 45.51727 | 15.58640 | 5506 ft | 223 kts | 173° |
| 2026-04-26 19:11 | 45.50305 | 15.59460 | 5510 ft | 223 kts | 140° |
| 2026-04-26 19:11 | 45.49455 | 15.61257 | 5504 ft | 227 kts | 109° |
| 2026-04-26 19:11 | 45.49358 | 15.63506 | 5504 ft | 230 kts | 88° |
| 2026-04-26 19:12 | 45.49540 | 15.65778 | 5496 ft | 231 kts | 85° |
| 2026-04-26 19:12 | 45.49750 | 15.68046 | 5499 ft | 231 kts | 85° |
| 2026-04-26 19:12 | 45.49954 | 15.70322 | 5446 ft | 232 kts | 85° |
| 2026-04-26 19:12 | 45.50460 | 15.72481 | 5183 ft | 232 kts | 57° |
| 2026-04-26 19:13 | 45.51539 | 15.74082 | 5189 ft | 216 kts | 43° |
| 2026-04-26 19:13 | 45.52646 | 15.75374 | 5145 ft | 204 kts | 40° |
| 2026-04-26 19:13 | 45.53731 | 15.76644 | 4954 ft | 201 kts | 41° |
| 2026-04-26 19:13 | 45.54871 | 15.77755 | 4639 ft | 199 kts | 18° |
| 2026-04-26 19:14 | 45.56109 | 15.78455 | 4724 ft | 193 kts | 40° |
| 2026-04-26 19:14 | 45.57078 | 15.79797 | 4672 ft | 194 kts | 48° |
| 2026-04-26 19:14 | 45.57988 | 15.81210 | 4544 ft | 193 kts | 50° |
| 2026-04-26 19:14 | 45.58571 | 15.82167 | 4311 ft | 191 kts | 53° |
| 2026-04-26 19:15 | 45.59655 | 15.84152 | 3787 ft | 188 kts | 54° |
| 2026-04-26 19:15 | 45.60504 | 15.85535 | 3459 ft | 183 kts | 48° |
| 2026-04-26 19:15 | 45.61364 | 15.86831 | 3108 ft | 178 kts | 51° |
| 2026-04-26 19:15 | 45.62163 | 15.88131 | 2944 ft | 172 kts | 52° |
| 2026-04-26 19:16 | 45.62948 | 15.89388 | 2847 ft | 172 kts | 51° |
| 2026-04-26 19:16 | 45.63750 | 15.90653 | 2742 ft | 172 kts | 50° |
| 2026-04-26 19:16 | 45.64550 | 15.91915 | 2615 ft | 172 kts | 51° |
| 2026-04-26 19:16 | 45.65359 | 15.93155 | 2460 ft | 168 kts | 50° |
| 2026-04-26 19:17 | 45.66150 | 15.94380 | 2305 ft | 168 kts | 49° |
| 2026-04-26 19:17 | 45.66944 | 15.95583 | 2185 ft | 164 kts | 48° |
| 2026-04-26 19:17 | 45.67684 | 15.96700 | 2029 ft | 147 kts | 50° |
| 2026-04-26 19:17 | 45.68338 | 15.97739 | 1876 ft | 140 kts | 50° |
| 2026-04-26 19:18 | 45.68985 | 15.98764 | 1682 ft | 139 kts | 50° |
| 2026-04-26 19:18 | 45.69626 | 15.99781 | 1499 ft | 137 kts | 49° |
| 2026-04-26 19:18 | 45.70283 | 16.00767 | 1337 ft | 136 kts | 47° |
| 2026-04-26 19:18 | 45.70930 | 16.01770 | 1159 ft | 137 kts | 48° |
| 2026-04-26 19:19 | 45.71580 | 16.02755 | 984 ft | 136 kts | 47° |
| 2026-04-26 19:19 | 45.72228 | 16.03737 | 730 ft | 134 kts | 47° |
| 2026-04-26 19:19 | 45.72869 | 16.04708 | 519 ft | 135 kts | 46° |
| 2026-04-26 19:19 | 45.73502 | 16.05682 | 369 ft | 130 kts | 45° |
| 2026-04-26 19:20 | 45.73983 | 16.06406 | 363 ft | 71 kts | 46° |
| 2026-04-26 19:20 | 45.74198 | 16.06729 | 365 ft | 63 kts | 47° |
| 2026-04-26 19:20 | 45.74537 | 16.07245 | 358 ft | 36 kts | 46° |
| 2026-04-26 19:20 | 45.74664 | 16.07479 | 364 ft | 23 kts | 79° |
| 2026-04-26 19:21 | 45.74592 | 16.07627 | 367 ft | 0 kts | 137° |
| 2026-04-26 19:22 | 45.74583 | 16.07639 | 359 ft | 5 kts | 137° |
| 2026-04-26 19:23 | 45.74537 | 16.07701 | 363 ft | 13 kts | 136° |
| 2026-04-26 19:23 | 45.74462 | 16.07802 | 359 ft | 16 kts | 136° |
| 2026-04-26 19:23 | 45.74380 | 16.07900 | 359 ft | 15 kts | 161° |
| 2026-04-26 19:23 | 45.74313 | 16.07902 | 362 ft | 9 kts | 150° |
| 2026-04-26 19:24 | 45.74270 | 16.07955 | 359 ft | 2 kts | 137° |
| 2026-04-26 19:24 | 45.74268 | 16.07958 | 359 ft | 0 kts | 136° |